Time;durP1;ratioP1;P1;durP2;ratioP2;P2;SDS_P1;SDS_P2;PMS_P1;PMS_P2;Temp;Humidity;BMP_temperature;BMP_pressure;BME280_temperature;BME280_humidity;BME280_pressure;Samples;Min_cycle;Max_cycle;Signal;HPM_P1;HPM_P2
2021/10/31 00:03:40;;;;;;;25.80;22.42;;;;;;;;;;10271717;28;20060;-50
2021/10/31 00:08:38;;;;;;;33.00;22.50;;;;;;;;;;10281434;28;20064;-48
2021/10/31 00:13:38;;;;;;;30.17;23.13;;;;;;;;;;10274933;28;20160;-54
2021/10/31 00:18:36;;;;;;;33.22;23.73;;;;;;;;;;10271969;28;20186;-55
2021/10/31 00:23:35;;;;;;;45.50;26.20;;;;;;;;;;10278724;28;20056;-54
2021/10/31 00:28:33;;;;;;;36.42;24.67;;;;;;;;;;10280817;28;20072;-54
2021/10/31 00:33:33;;;;;;;34.47;23.75;;;;;;;;;;10279914;28;20122;-53
2021/10/31 00:38:31;;;;;;;28.60;23.15;;;;;;;;;;10281935;28;20139;-55
2021/10/31 00:43:29;;;;;;;30.52;22.20;;;;;;;;;;10281806;28;20049;-55
2021/10/31 00:48:28;;;;;;;28.25;22.77;;;;;;;;;;10278473;28;20171;-51
2021/10/31 00:53:27;;;;;;;26.48;21.15;;;;;;;;;;10279826;28;20204;-53
2021/10/31 00:58:26;;;;;;;30.20;22.55;;;;;;;;;;10280212;28;20045;-49
2021/10/31 01:03:25;;;;;;;31.00;21.77;;;;;;;;;;10279367;28;20076;-52
2021/10/31 01:08:38;;;;;;;26.27;21.63;;;;;;;;;;10278304;28;20068;-51
2021/10/31 01:13:54;;;;;;;24.52;19.65;;;;;;;;;;10277207;28;20547;-51
2021/10/31 01:19:06;;;;;;;24.80;20.77;;;;;;;;;;10278718;28;20065;-50
2021/10/31 01:24:17;;;;;;;29.80;20.92;;;;;;;;;;10277241;28;20514;-49
2021/10/31 01:29:26;;;;;;;31.55;22.52;;;;;;;;;;10283261;28;20490;-52
2021/10/31 01:34:31;;;;;;;32.85;25.40;;;;;;;;;;10278671;28;20079;-53
2021/10/31 01:39:32;;;;;;;33.10;26.63;;;;;;;;;;10283935;28;20072;-55
2021/10/31 01:44:36;;;;;;;30.52;24.92;;;;;;;;;;10282985;28;20528;-53
2021/10/31 01:49:42;;;;;;;26.92;21.33;;;;;;;;;;10277940;28;20072;-49
2021/10/31 01:54:44;;;;;;;25.10;20.95;;;;;;;;;;10277882;28;20072;-51
2021/10/31 01:59:46;;;;;;;25.17;20.70;;;;;;;;;;10276802;28;20079;-55
2021/10/31 02:04:45;;;;;;;27.02;20.52;;;;;;;;;;10275947;28;20075;-54
2021/10/31 02:09:45;;;;;;;26.05;19.75;;;;;;;;;;10276518;28;20075;-56
2021/10/31 02:14:45;;;;;;;26.25;19.38;;;;;;;;;;10277732;28;20473;-56
2021/10/31 02:19:44;;;;;;;28.85;20.10;;;;;;;;;;10275294;28;20064;-56
2021/10/31 02:24:45;;;;;;;25.05;19.42;;;;;;;;;;10275359;28;20072;-54
2021/10/31 02:29:45;;;;;;;30.00;22.05;;;;;;;;;;10288034;28;20119;-55
2021/10/31 02:34:44;;;;;;;30.42;21.80;;;;;;;;;;10275072;28;20073;-53
2021/10/31 02:39:43;;;;;;;29.30;21.23;;;;;;;;;;10274197;28;20472;-54
2021/10/31 02:44:42;;;;;;;24.38;21.77;;;;;;;;;;10273319;28;20061;-56
2021/10/31 02:49:41;;;;;;;29.05;22.27;;;;;;;;;;10279327;28;20461;-56
2021/10/31 02:55:05;;;;;;;32.08;23.20;;;;;;;;;;10316903;28;20556;-52
2021/10/31 03:00:05;;;;;;;29.42;23.38;;;;;;;;;;10296583;28;20061;-49
2021/10/31 03:05:04;;;;;;;26.27;21.98;;;;;;;;;;10274646;28;20064;-53
2021/10/31 03:10:03;;;;;;;27.35;22.55;;;;;;;;;;10274256;28;20080;-55
2021/10/31 03:15:02;;;;;;;28.75;20.35;;;;;;;;;;10275273;28;20080;-53
2021/10/31 03:20:02;;;;;;;32.00;25.02;;;;;;;;;;10275411;28;20068;-53
2021/10/31 03:25:01;;;;;;;31.92;24.77;;;;;;;;;;10275163;28;20069;-55
2021/10/31 03:30:00;;;;;;;25.00;21.90;;;;;;;;;;10272388;28;20143;-54
2021/10/31 03:34:59;;;;;;;24.52;21.42;;;;;;;;;;10273323;28;20072;-55
2021/10/31 03:39:57;;;;;;;25.33;22.42;;;;;;;;;;10274768;28;20080;-54
2021/10/31 03:44:57;;;;;;;28.45;22.77;;;;;;;;;;10274214;28;20061;-52
2021/10/31 03:49:57;;;;;;;23.48;18.17;;;;;;;;;;10279134;28;20064;-55
2021/10/31 03:54:55;;;;;;;22.77;18.98;;;;;;;;;;10272852;28;20075;-54
2021/10/31 03:59:53;;;;;;;23.15;18.38;;;;;;;;;;10273580;28;20471;-54
2021/10/31 04:04:52;;;;;;;20.05;17.90;;;;;;;;;;10271391;28;20048;-50
2021/10/31 04:09:51;;;;;;;20.08;17.67;;;;;;;;;;10271896;28;20059;-54
2021/10/31 04:14:50;;;;;;;23.95;19.30;;;;;;;;;;10272402;28;20069;-55
2021/10/31 04:19:48;;;;;;;29.83;23.67;;;;;;;;;;10273766;28;20041;-50
2021/10/31 04:24:46;;;;;;;36.22;28.27;;;;;;;;;;10274010;28;20065;-53
2021/10/31 04:29:46;;;;;;;26.92;24.02;;;;;;;;;;10271901;28;20446;-54
2021/10/31 04:34:44;;;;;;;31.73;23.88;;;;;;;;;;10273163;28;20072;-50
2021/10/31 04:39:45;;;;;;;27.13;23.45;;;;;;;;;;10273556;28;20040;-54
2021/10/31 04:44:43;;;;;;;26.25;22.55;;;;;;;;;;10273767;28;20068;-53
2021/10/31 04:49:44;;;;;;;29.33;25.83;;;;;;;;;;10271733;28;20065;-56
2021/10/31 04:54:43;;;;;;;37.47;28.48;;;;;;;;;;10276714;28;20081;-53
2021/10/31 04:59:41;;;;;;;41.13;29.80;;;;;;;;;;10271536;28;20060;-54
2021/10/31 05:04:39;;;;;;;49.38;29.23;;;;;;;;;;10270309;28;20064;-54
2021/10/31 05:09:39;;;;;;;50.22;34.25;;;;;;;;;;10274917;28;20072;-54
2021/10/31 05:14:37;;;;;;;45.95;32.88;;;;;;;;;;10279609;28;20076;-52
2021/10/31 05:19:35;;;;;;;41.53;29.60;;;;;;;;;;10279261;28;20069;-53
2021/10/31 05:24:34;;;;;;;34.78;25.92;;;;;;;;;;10288262;28;20556;-53
2021/10/31 05:29:33;;;;;;;44.33;31.27;;;;;;;;;;10287034;28;20085;-54
2021/10/31 05:34:31;;;;;;;36.95;26.17;;;;;;;;;;10286863;28;20083;-52
2021/10/31 05:39:30;;;;;;;41.33;30.02;;;;;;;;;;10281409;28;20073;-56
2021/10/31 05:44:28;;;;;;;62.72;43.78;;;;;;;;;;10284222;28;20481;-54
2021/10/31 05:49:28;;;;;;;56.22;42.25;;;;;;;;;;10279472;28;20072;-53
2021/10/31 05:54:26;;;;;;;53.85;36.28;;;;;;;;;;10319434;28;20083;-52
2021/10/31 05:59:24;;;;;;;39.75;29.27;;;;;;;;;;10285870;28;20091;-55
2021/10/31 06:04:25;;;;;;;38.20;28.77;;;;;;;;;;10284508;28;20521;-55
2021/10/31 06:09:25;;;;;;;36.38;28.40;;;;;;;;;;10278834;28;20131;-55
2021/10/31 06:14:24;;;;;;;61.22;43.80;;;;;;;;;;10284058;28;20072;-51
2021/10/31 06:19:25;;;;;;;50.33;34.75;;;;;;;;;;10277013;28;20076;-54
2021/10/31 06:24:25;;;;;;;44.15;31.58;;;;;;;;;;10277216;28;20509;-52
2021/10/31 06:29:23;;;;;;;59.72;43.38;;;;;;;;;;10277259;28;20068;-52
2021/10/31 06:34:21;;;;;;;56.70;39.78;;;;;;;;;;10276717;28;20489;-55
2021/10/31 06:39:20;;;;;;;54.13;38.15;;;;;;;;;;10275070;28;20084;-52
2021/10/31 06:44:19;;;;;;;51.97;35.72;;;;;;;;;;10274846;28;20527;-54
2021/10/31 06:49:18;;;;;;;46.63;32.92;;;;;;;;;;10276292;28;20519;-52
2021/10/31 06:54:16;;;;;;;43.50;32.53;;;;;;;;;;10275275;28;20499;-54
2021/10/31 06:59:14;;;;;;;36.05;29.05;;;;;;;;;;10274889;28;20482;-53
2021/10/31 07:04:14;;;;;;;43.88;35.45;;;;;;;;;;10277939;28;20597;-54
2021/10/31 07:09:12;;;;;;;36.90;30.13;;;;;;;;;;10279533;28;20075;-55
2021/10/31 07:14:11;;;;;;;39.63;29.00;;;;;;;;;;10281799;28;20482;-54
2021/10/31 07:19:09;;;;;;;35.08;27.25;;;;;;;;;;10277599;28;20080;-53
2021/10/31 07:24:09;;;;;;;31.27;24.73;;;;;;;;;;10270623;28;20310;-55
2021/10/31 07:29:08;;;;;;;34.10;25.27;;;;;;;;;;10264638;28;20159;-52
2021/10/31 07:34:08;;;;;;;39.55;26.90;;;;;;;;;;10264385;28;20068;-54
2021/10/31 07:39:08;;;;;;;60.50;43.28;;;;;;;;;;10271290;28;20056;-54
2021/10/31 07:44:08;;;;;;;40.78;31.00;;;;;;;;;;10275187;28;20061;-55
2021/10/31 07:49:07;;;;;;;33.95;27.50;;;;;;;;;;10269330;28;20076;-55
2021/10/31 07:54:05;;;;;;;31.98;26.27;;;;;;;;;;10272144;28;20469;-55
2021/10/31 07:59:04;;;;;;;36.20;29.80;;;;;;;;;;10271692;28;20092;-55
2021/10/31 08:04:03;;;;;;;37.00;26.88;;;;;;;;;;10271209;28;20064;-53
2021/10/31 08:09:02;;;;;;;39.38;29.17;;;;;;;;;;10270864;28;20772;-52
2021/10/31 08:14:01;;;;;;;43.47;33.10;;;;;;;;;;10278344;28;20084;-54
2021/10/31 08:18:59;;;;;;;40.28;35.85;;;;;;;;;;10275456;28;20068;-54
2021/10/31 08:23:59;;;;;;;36.47;31.35;;;;;;;;;;10270088;28;20057;-54
2021/10/31 08:28:59;;;;;;;30.10;25.88;;;;;;;;;;10269462;28;20060;-55
2021/10/31 08:33:58;;;;;;;38.78;32.90;;;;;;;;;;10268971;28;20073;-52
2021/10/31 08:38:57;;;;;;;26.73;23.67;;;;;;;;;;10278653;28;20076;-55
2021/10/31 08:43:59;;;;;;;26.90;22.48;;;;;;;;;;10287511;28;20068;-52
2021/10/31 08:48:57;;;;;;;40.22;31.67;;;;;;;;;;10277069;28;20492;-55
2021/10/31 08:53:56;;;;;;;40.85;29.92;;;;;;;;;;10276789;28;20060;-55
2021/10/31 08:58:55;;;;;;;48.75;37.33;;;;;;;;;;10291729;28;20068;-55
2021/10/31 09:03:54;;;;;;;36.47;28.75;;;;;;;;;;10276179;28;20079;-53
2021/10/31 09:08:53;;;;;;;42.88;31.98;;;;;;;;;;10278519;28;20061;-52
2021/10/31 09:13:52;;;;;;;35.15;24.13;;;;;;;;;;10285864;28;20072;-48
2021/10/31 09:18:51;;;;;;;35.60;28.95;;;;;;;;;;10277191;28;20458;-48
2021/10/31 09:23:50;;;;;;;31.23;23.73;;;;;;;;;;10278888;28;20060;-52
2021/10/31 09:28:49;;;;;;;36.58;30.52;;;;;;;;;;10276903;28;20076;-49
2021/10/31 09:33:48;;;;;;;40.65;30.42;;;;;;;;;;10277946;28;20072;-54
2021/10/31 09:38:46;;;;;;;33.50;25.48;;;;;;;;;;10276863;28;20060;-51
2021/10/31 09:43:49;;;;;;;64.00;49.72;;;;;;;;;;10276342;28;20057;-53
2021/10/31 09:48:47;;;;;;;23.33;18.98;;;;;;;;;;10274918;28;20075;-53
2021/10/31 09:53:46;;;;;;;37.03;29.52;;;;;;;;;;10304657;28;20091;-54
2021/10/31 09:58:46;;;;;;;28.30;22.23;;;;;;;;;;10294808;28;20516;-56
2021/10/31 10:03:52;;;;;;;18.70;15.68;;;;;;;;;;10274089;28;20178;-53
2021/10/31 10:09:01;;;;;;;22.25;17.73;;;;;;;;;;10275236;28;20481;-56
2021/10/31 10:14:17;;;;;;;21.17;15.35;;;;;;;;;;10273626;28;20080;-54
2021/10/31 10:19:20;;;;;;;23.23;15.45;;;;;;;;;;10274751;28;20080;-51
2021/10/31 10:24:19;;;;;;;18.35;13.80;;;;;;;;;;10274760;28;20073;-54
2021/10/31 10:29:19;;;;;;;19.10;15.73;;;;;;;;;;10276545;28;20060;-55
2021/10/31 10:34:31;;;;;;;21.45;15.80;;;;;;;;;;10278046;28;20096;-49
2021/10/31 10:39:33;;;;;;;19.75;14.73;;;;;;;;;;10274127;28;20061;-51
2021/10/31 10:44:33;;;;;;;61.38;45.53;;;;;;;;;;10274985;28;20197;-52
2021/10/31 10:49:33;;;;;;;19.83;16.60;;;;;;;;;;10272948;28;20191;-51
2021/10/31 10:54:31;;;;;;;18.45;13.93;;;;;;;;;;10272909;28;20431;-54
2021/10/31 10:59:30;;;;;;;16.83;13.68;;;;;;;;;;10272930;28;20072;-54
2021/10/31 11:04:30;;;;;;;18.45;16.38;;;;;;;;;;10274892;28;20080;-49
2021/10/31 11:09:36;;;;;;;18.50;15.35;;;;;;;;;;10282802;28;20072;-50
2021/10/31 11:14:34;;;;;;;32.60;21.77;;;;;;;;;;10274934;28;20079;-50
2021/10/31 11:19:34;;;;;;;30.10;21.77;;;;;;;;;;10281103;28;20098;-53
2021/10/31 11:24:33;;;;;;;34.33;21.75;;;;;;;;;;10274667;28;20071;-51
2021/10/31 11:29:31;;;;;;;32.13;21.08;;;;;;;;;;10271784;28;20454;-53
2021/10/31 11:34:31;;;;;;;42.83;28.25;;;;;;;;;;10271976;28;20103;-54
2021/10/31 11:39:31;;;;;;;21.98;16.95;;;;;;;;;;10277613;28;20064;-53
2021/10/31 11:44:30;;;;;;;30.42;23.33;;;;;;;;;;10276461;28;20133;-54
2021/10/31 11:49:28;;;;;;;15.43;13.70;;;;;;;;;;10278587;28;20056;-54
2021/10/31 11:54:27;;;;;;;18.35;12.70;;;;;;;;;;10270299;28;20061;-54
2021/10/31 11:59:27;;;;;;;18.15;12.57;;;;;;;;;;10268360;28;20696;-54
2021/10/31 12:10:26;;;;;;;13.85;9.90;;;;;;;;;;10266884;28;20130;-54
2021/10/31 12:15:32;;;;;;;12.60;11.00;;;;;;;;;;10274203;28;20080;-51
2021/10/31 12:20:50;;;;;;;19.35;14.98;;;;;;;;;;10279759;28;20079;-51
2021/10/31 12:25:49;;;;;;;27.67;21.67;;;;;;;;;;10280459;28;20079;-53
2021/10/31 12:30:49;;;;;;;13.23;10.95;;;;;;;;;;10279962;28;20079;-54
2021/10/31 12:35:49;;;;;;;21.25;14.60;;;;;;;;;;10280149;28;20075;-53
2021/10/31 12:41:17;;;;;;;17.20;10.32;;;;;;;;;;10279806;28;20064;-53
2021/10/31 12:46:21;;;;;;;14.48;10.07;;;;;;;;;;10278854;28;20068;-53
2021/10/31 12:51:41;;;;;;;12.43;10.35;;;;;;;;;;10280455;28;20068;-53
2021/10/31 12:56:44;;;;;;;14.95;9.65;;;;;;;;;;10303098;28;20075;-51
2021/10/31 13:01:45;;;;;;;26.98;21.25;;;;;;;;;;10319043;28;20069;-52
2021/10/31 13:06:54;;;;;;;62.70;48.47;;;;;;;;;;10318968;28;20090;-54
2021/10/31 13:11:53;;;;;;;33.00;27.02;;;;;;;;;;10319426;28;20448;-53
2021/10/31 13:16:57;;;;;;;27.52;18.33;;;;;;;;;;10318183;28;20064;-52
2021/10/31 13:22:00;;;;;;;47.88;31.40;;;;;;;;;;10318646;28;20072;-55
2021/10/31 13:26:58;;;;;;;29.40;22.88;;;;;;;;;;10311158;28;20052;-53
2021/10/31 13:31:58;;;;;;;14.30;9.93;;;;;;;;;;10279553;28;20081;-53
2021/10/31 13:36:56;;;;;;;14.80;11.05;;;;;;;;;;10279997;28;20084;-54
2021/10/31 13:41:57;;;;;;;15.13;10.60;;;;;;;;;;10281464;28;20465;-55
2021/10/31 13:47:11;;;;;;;19.38;11.05;;;;;;;;;;10279418;28;20076;-52
2021/10/31 13:52:18;;;;;;;11.95;10.25;;;;;;;;;;10275037;28;20088;-53
2021/10/31 13:57:19;;;;;;;19.90;15.85;;;;;;;;;;10276247;28;20454;-51
2021/10/31 14:02:19;;;;;;;17.60;12.52;;;;;;;;;;10276599;28;20041;-53
2021/10/31 14:07:18;;;;;;;22.02;17.00;;;;;;;;;;10275828;28;20064;-54
2021/10/31 14:12:19;;;;;;;16.10;13.50;;;;;;;;;;10275587;28;20065;-54
2021/10/31 14:17:21;;;;;;;18.48;14.13;;;;;;;;;;10275404;28;20549;-53
2021/10/31 14:22:20;;;;;;;24.05;16.48;;;;;;;;;;10275290;28;20134;-52
2021/10/31 14:27:19;;;;;;;27.23;16.83;;;;;;;;;;10274851;28;20064;-49
2021/10/31 14:32:18;;;;;;;24.75;16.52;;;;;;;;;;10274514;28;20459;-55
2021/10/31 14:37:17;;;;;;;55.65;31.27;;;;;;;;;;10274620;28;20512;-53
2021/10/31 14:42:22;;;;;;;70.07;42.75;;;;;;;;;;10274028;28;20076;-53
2021/10/31 14:47:20;;;;;;;50.80;33.65;;;;;;;;;;10274347;28;20510;-51
2021/10/31 14:52:25;;;;;;;61.83;40.30;;;;;;;;;;10273793;28;20064;-52
2021/10/31 14:57:25;;;;;;;69.93;43.17;;;;;;;;;;10273394;28;20085;-51
2021/10/31 15:02:24;;;;;;;86.68;52.08;;;;;;;;;;10273878;28;20072;-54
2021/10/31 15:07:25;;;;;;;69.30;42.40;;;;;;;;;;10273221;28;20084;-49
2021/10/31 15:12:24;;;;;;;88.53;53.47;;;;;;;;;;10273297;28;20112;-55
2021/10/31 15:17:28;;;;;;;55.03;34.10;;;;;;;;;;10272889;28;20549;-53
2021/10/31 15:22:30;;;;;;;49.33;36.10;;;;;;;;;;10275771;28;20076;-53
2021/10/31 15:27:28;;;;;;;46.38;32.85;;;;;;;;;;10274304;28;20061;-53
2021/10/31 15:32:27;;;;;;;77.65;50.70;;;;;;;;;;10272480;28;20088;-53
2021/10/31 15:37:25;;;;;;;52.72;36.55;;;;;;;;;;10281579;28;20127;-56
2021/10/31 15:42:26;;;;;;;33.20;26.23;;;;;;;;;;10279455;28;20076;-55
2021/10/31 15:47:25;;;;;;;47.70;31.55;;;;;;;;;;10276164;28;20084;-51
2021/10/31 15:52:23;;;;;;;74.82;46.55;;;;;;;;;;10262177;28;20183;-54
2021/10/31 15:57:22;;;;;;;77.70;51.00;;;;;;;;;;10263134;28;20059;-51
2021/10/31 16:02:29;;;;;;;82.00;51.28;;;;;;;;;;10273698;28;20588;-53
2021/10/31 16:07:27;;;;;;;52.53;39.42;;;;;;;;;;10269248;28;20072;-53
2021/10/31 16:12:26;;;;;;;49.25;36.67;;;;;;;;;;10271766;28;20077;-54
2021/10/31 16:17:25;;;;;;;72.95;56.10;;;;;;;;;;10263134;28;20131;-54
2021/10/31 16:22:24;;;;;;;48.50;35.45;;;;;;;;;;10262106;28;20065;-50
2021/10/31 16:27:22;;;;;;;52.97;34.47;;;;;;;;;;10267126;28;20068;-55
2021/10/31 16:32:25;;;;;;;34.92;23.20;;;;;;;;;;10271216;28;20076;-55
2021/10/31 16:37:25;;;;;;;33.95;21.95;;;;;;;;;;10270965;28;20071;-55
2021/10/31 16:42:26;;;;;;;27.45;18.80;;;;;;;;;;10274970;28;20059;-54
2021/10/31 16:47:24;;;;;;;22.30;17.65;;;;;;;;;;10275666;28;20075;-53
2021/10/31 16:52:22;;;;;;;17.88;13.00;;;;;;;;;;10274280;28;20068;-53
2021/10/31 16:57:22;;;;;;;16.33;12.18;;;;;;;;;;10270517;28;20115;-57
2021/10/31 17:02:20;;;;;;;24.27;15.90;;;;;;;;;;10271224;28;20084;-57
2021/10/31 17:07:33;;;;;;;18.83;15.25;;;;;;;;;;10278047;28;20079;-53
2021/10/31 17:12:35;;;;;;;14.68;12.65;;;;;;;;;;10277598;28;20069;-55
2021/10/31 17:17:34;;;;;;;17.65;13.35;;;;;;;;;;10281907;28;20103;-52
2021/10/31 17:22:32;;;;;;;19.33;15.73;;;;;;;;;;10277921;28;20076;-55
2021/10/31 17:27:30;;;;;;;24.58;18.60;;;;;;;;;;10276846;28;20065;-52
2021/10/31 17:32:30;;;;;;;20.13;14.52;;;;;;;;;;10277382;28;20077;-54
2021/10/31 17:37:28;;;;;;;19.75;13.52;;;;;;;;;;10277141;28;20084;-53
2021/10/31 17:42:26;;;;;;;17.42;13.15;;;;;;;;;;10279776;28;20079;-53
2021/10/31 17:47:25;;;;;;;19.05;14.00;;;;;;;;;;10277060;28;20611;-52
2021/10/31 17:52:26;;;;;;;19.25;13.02;;;;;;;;;;10276168;28;20077;-53
2021/10/31 17:57:24;;;;;;;19.63;14.02;;;;;;;;;;10276097;28;20072;-54
2021/10/31 18:02:22;;;;;;;15.45;12.45;;;;;;;;;;10279684;28;20077;-52
2021/10/31 18:07:21;;;;;;;24.40;16.48;;;;;;;;;;10279812;28;20076;-54
2021/10/31 18:12:20;;;;;;;25.42;19.50;;;;;;;;;;10282707;28;20160;-53
2021/10/31 18:17:19;;;;;;;17.10;14.70;;;;;;;;;;10274736;28;20122;-52
2021/10/31 18:22:17;;;;;;;19.70;16.17;;;;;;;;;;10275279;28;20073;-53
2021/10/31 18:27:15;;;;;;;26.55;19.08;;;;;;;;;;10274809;28;20072;-54
2021/10/31 18:32:15;;;;;;;20.35;15.93;;;;;;;;;;10274942;28;20076;-52
2021/10/31 18:37:27;;;;;;;16.52;13.82;;;;;;;;;;10274562;28;20065;-52
2021/10/31 18:42:27;;;;;;;15.90;12.98;;;;;;;;;;10276160;28;20072;-52
2021/10/31 18:47:27;;;;;;;14.30;12.38;;;;;;;;;;10273969;28;20505;-54
2021/10/31 18:52:25;;;;;;;15.98;12.85;;;;;;;;;;10273934;28;20048;-54
2021/10/31 18:57:25;;;;;;;16.65;12.77;;;;;;;;;;10275614;28;20065;-55
2021/10/31 19:02:23;;;;;;;19.73;13.30;;;;;;;;;;10273657;28;20490;-53
2021/10/31 19:07:23;;;;;;;19.65;14.95;;;;;;;;;;10290035;28;20079;-54
2021/10/31 19:12:21;;;;;;;16.90;15.10;;;;;;;;;;10303435;28;20079;-53
2021/10/31 19:17:20;;;;;;;20.75;15.18;;;;;;;;;;10280068;28;20056;-53
2021/10/31 19:22:18;;;;;;;19.48;15.98;;;;;;;;;;10272936;28;20073;-54
2021/10/31 19:27:18;;;;;;;21.58;16.88;;;;;;;;;;10276480;28;20474;-54
2021/10/31 19:32:16;;;;;;;20.73;16.48;;;;;;;;;;10278405;28;20508;-55
2021/10/31 19:37:15;;;;;;;24.50;19.05;;;;;;;;;;10279921;28;20077;-49
2021/10/31 19:42:13;;;;;;;24.10;18.70;;;;;;;;;;10272339;28;20064;-50
2021/10/31 19:47:13;;;;;;;25.65;17.58;;;;;;;;;;10274763;28;20072;-55
2021/10/31 19:52:11;;;;;;;28.15;21.92;;;;;;;;;;10271593;28;20064;-55
2021/10/31 19:57:10;;;;;;;31.23;20.92;;;;;;;;;;10272834;28;20140;-53
2021/10/31 20:02:08;;;;;;;24.70;19.75;;;;;;;;;;10304048;28;20060;-53
2021/10/31 20:07:08;;;;;;;46.00;30.55;;;;;;;;;;10291546;28;20471;-53
2021/10/31 20:12:07;;;;;;;26.20;20.98;;;;;;;;;;10275085;28;20462;-54
2021/10/31 20:17:05;;;;;;;24.20;18.70;;;;;;;;;;10276189;28;20071;-54
2021/10/31 20:22:04;;;;;;;35.90;25.80;;;;;;;;;;10275068;28;20068;-54
2021/10/31 20:27:04;;;;;;;30.45;23.80;;;;;;;;;;10274335;28;20486;-53
2021/10/31 20:32:03;;;;;;;27.90;22.77;;;;;;;;;;10271690;28;20081;-54
2021/10/31 20:37:01;;;;;;;33.75;21.75;;;;;;;;;;10274786;28;20092;-55
2021/10/31 20:42:02;;;;;;;25.00;18.73;;;;;;;;;;10280662;28;20450;-52
2021/10/31 20:47:03;;;;;;;25.27;18.58;;;;;;;;;;10280711;28;20064;-53
2021/10/31 20:52:01;;;;;;;25.92;19.35;;;;;;;;;;10280923;28;20061;-54
2021/10/31 20:57:01;;;;;;;30.40;21.67;;;;;;;;;;10281137;28;20083;-51
2021/10/31 21:02:00;;;;;;;37.22;24.95;;;;;;;;;;10278388;28;20064;-54
2021/10/31 21:07:00;;;;;;;30.42;20.27;;;;;;;;;;10280591;28;20069;-53
2021/10/31 21:11:59;;;;;;;25.00;18.65;;;;;;;;;;10278194;28;20084;-53
2021/10/31 21:17:00;;;;;;;22.98;19.30;;;;;;;;;;10281897;28;20064;-53
2021/10/31 21:21:59;;;;;;;24.80;18.30;;;;;;;;;;10283695;28;20099;-54
2021/10/31 21:26:58;;;;;;;23.35;17.90;;;;;;;;;;10279585;28;20068;-55
2021/10/31 21:31:59;;;;;;;24.83;18.02;;;;;;;;;;10277900;28;20596;-52
2021/10/31 21:36:59;;;;;;;24.90;17.98;;;;;;;;;;10280888;28;20075;-53
2021/10/31 21:41:59;;;;;;;20.98;17.60;;;;;;;;;;10278087;28;20072;-53
2021/10/31 21:46:57;;;;;;;23.27;18.40;;;;;;;;;;10280020;28;20073;-54
2021/10/31 21:51:57;;;;;;;25.13;19.42;;;;;;;;;;10283231;28;20075;-53
2021/10/31 21:56:56;;;;;;;24.15;17.48;;;;;;;;;;10278784;28;20060;-53
2021/10/31 22:01:55;;;;;;;22.50;17.65;;;;;;;;;;10283668;28;20073;-54
2021/10/31 22:06:54;;;;;;;23.83;17.15;;;;;;;;;;10286899;28;20068;-53
2021/10/31 22:11:53;;;;;;;23.45;18.42;;;;;;;;;;10276237;28;20060;-54
2021/10/31 22:16:52;;;;;;;27.58;19.60;;;;;;;;;;10284752;28;20494;-51
2021/10/31 22:21:52;;;;;;;25.10;19.45;;;;;;;;;;10277542;28;20520;-53
2021/10/31 22:26:51;;;;;;;26.48;20.65;;;;;;;;;;10279987;28;20068;-51
2021/10/31 22:31:49;;;;;;;31.38;21.48;;;;;;;;;;10276018;28;20052;-53
2021/10/31 22:36:47;;;;;;;30.88;19.50;;;;;;;;;;10275165;28;20048;-52
2021/10/31 22:41:47;;;;;;;20.02;17.48;;;;;;;;;;10277522;28;20533;-53
2021/10/31 22:46:46;;;;;;;20.70;17.60;;;;;;;;;;10275572;28;20049;-53
2021/10/31 22:51:45;;;;;;;21.10;17.13;;;;;;;;;;10275910;28;20068;-53
2021/10/31 22:56:44;;;;;;;20.95;16.00;;;;;;;;;;10275674;28;20095;-53
2021/10/31 23:01:44;;;;;;;19.42;15.77;;;;;;;;;;10274801;28;20072;-54
2021/10/31 23:06:43;;;;;;;20.83;15.80;;;;;;;;;;10274901;28;20067;-52
2021/10/31 23:11:41;;;;;;;20.25;17.10;;;;;;;;;;10274883;28;20064;-53
2021/10/31 23:16:39;;;;;;;19.15;15.85;;;;;;;;;;10275217;28;20072;-51
2021/10/31 23:21:39;;;;;;;20.38;17.33;;;;;;;;;;10274493;28;20072;-48
2021/10/31 23:26:37;;;;;;;22.85;19.17;;;;;;;;;;10274087;28;20067;-53
2021/10/31 23:31:36;;;;;;;18.85;15.93;;;;;;;;;;10274527;28;20100;-50
2021/10/31 23:36:34;;;;;;;20.15;15.48;;;;;;;;;;10273553;28;20069;-54
2021/10/31 23:41:34;;;;;;;20.65;16.30;;;;;;;;;;10273611;28;20068;-51
2021/10/31 23:46:32;;;;;;;23.55;16.10;;;;;;;;;;10273397;28;20087;-50
2021/10/31 23:51:30;;;;;;;22.42;16.73;;;;;;;;;;10273516;28;20072;-52
2021/10/31 23:56:29;;;;;;;22.23;17.30;;;;;;;;;;10272798;28;20068;-49
